Alts de Borinquen Gdns, Puerto Rico
Current Conditions -  °F | °C
As of 2:56 PM on Tuesday 27 Jan 2015 (Local Time) from TJSJ Reporting Station
Broken Clouds Broken Clouds  
Wind Chill: 88°   Ceiling: 8000
Heat Index: 94°   Visibility: 10mi
Dew Point: 71°   Wind: 7mph
Humidity: 57%   Direction: NA
Pressure: 29.95"   Gusts: NA
Location:  18.3754°N, 66.0577°W
Report Text: TJSJ 271856Z VRB06KT 10SM FEW036 SCT046 BKN080 31/22 A2995 RMK AO2 SLP141 VCSH W-NW T03110217
Loading
Personal Weather Stations






























Interactive Weather Map New forecast layout! Learn more

10-Day Weather Forecast

Advertisements
Track Severe Weather on mobile